createdAt,value
2022-07-30T00:01:17.667Z,60.88
2022-07-30T00:03:44.489Z,62.00
2022-07-30T00:06:11.272Z,61.47
2022-07-30T00:08:37.936Z,61.40
2022-07-30T00:11:04.647Z,61.57
2022-07-30T00:13:31.680Z,60.60
2022-07-30T00:15:58.400Z,60.80
2022-07-30T00:18:25.014Z,61.83
2022-07-30T00:20:51.965Z,60.97
2022-07-30T00:23:18.622Z,61.26
2022-07-30T00:25:45.416Z,62.94
2022-07-30T00:28:12.184Z,62.96
2022-07-30T00:30:40.799Z,61.62
2022-07-30T00:33:08.397Z,61.18
2022-07-30T00:35:35.530Z,60.77
2022-07-30T00:38:02.194Z,61.32
2022-07-30T00:40:28.857Z,60.99
2022-07-30T00:42:55.633Z,60.80
2022-07-30T00:45:22.408Z,60.28
2022-07-30T00:47:49.132Z,60.19
2022-07-30T00:50:16.432Z,60.08
2022-07-30T00:52:43.594Z,60.48
2022-07-30T00:55:12.500Z,60.58
2022-07-30T00:57:40.100Z,60.20
2022-07-30T01:00:10.886Z,60.24
2022-07-30T01:02:37.846Z,59.98
2022-07-30T01:05:05.260Z,59.97
2022-07-30T01:07:31.983Z,62.03
2022-07-30T01:09:58.624Z,62.31
2022-07-30T01:12:26.977Z,61.44
2022-07-30T01:14:56.262Z,61.49
2022-07-30T01:17:22.988Z,62.62
2022-07-30T01:19:52.596Z,63.40
2022-07-30T01:22:26.568Z,66.45
2022-07-30T01:25:03.641Z,66.81
2022-07-30T01:27:33.897Z,63.84
2022-07-30T01:30:05.193Z,62.33
2022-07-30T01:32:34.975Z,61.69
2022-07-30T01:35:03.538Z,61.49
2022-07-30T01:37:32.087Z,61.30
2022-07-30T01:39:59.528Z,61.32
2022-07-30T01:42:28.780Z,61.54
2022-07-30T01:44:57.298Z,61.27
2022-07-30T01:47:25.366Z,63.15
2022-07-30T01:49:53.496Z,64.62
2022-07-30T01:52:22.194Z,64.23
2022-07-30T01:54:51.042Z,63.67
2022-07-30T01:57:20.858Z,63.42
2022-07-30T01:59:50.374Z,63.37
2022-07-30T02:02:18.140Z,62.33
2022-07-30T02:04:45.145Z,62.61
2022-07-30T02:07:27.877Z,61.55
2022-07-30T02:10:01.778Z,61.56
2022-07-30T02:12:31.116Z,61.95
2022-07-30T02:15:17.763Z,61.52
2022-07-30T02:18:00.370Z,61.14
2022-07-30T02:20:30.369Z,61.50
2022-07-30T02:23:06.102Z,62.26
2022-07-30T02:25:34.891Z,63.31
2022-07-30T02:28:09.929Z,61.65
2022-07-30T02:30:40.751Z,61.24
2022-07-30T02:33:12.958Z,61.39
2022-07-30T02:35:41.301Z,61.62
2022-07-30T02:38:10.252Z,62.58
2022-07-30T02:40:41.998Z,61.79
2022-07-30T02:43:09.223Z,61.95
2022-07-30T02:45:37.491Z,61.77
2022-07-30T02:48:09.077Z,61.61
2022-07-30T02:50:36.990Z,61.99
2022-07-30T02:53:06.954Z,61.61
2022-07-30T02:55:35.553Z,62.26
2022-07-30T02:58:05.188Z,61.30
2022-07-30T03:00:33.941Z,61.23
2022-07-30T03:03:01.850Z,61.54
2022-07-30T03:05:29.451Z,61.17
2022-07-30T03:07:59.776Z,62.03
2022-07-30T03:10:27.911Z,62.01
2022-07-30T03:12:56.282Z,62.26
2022-07-30T03:15:23.356Z,61.61
2022-07-30T03:17:53.898Z,61.69
2022-07-30T03:20:27.817Z,62.74
2022-07-30T03:22:57.348Z,61.96
2022-07-30T03:25:26.842Z,61.98
2022-07-30T03:27:55.730Z,61.69
2022-07-30T03:30:26.732Z,61.50
2022-07-30T03:32:54.147Z,61.74
2022-07-30T03:35:22.187Z,61.23
2022-07-30T03:37:49.651Z,61.69
2022-07-30T03:40:17.279Z,61.55
2022-07-30T03:42:45.633Z,61.05
2022-07-30T03:45:16.083Z,61.36
2022-07-30T03:47:44.053Z,61.20
2022-07-30T03:50:12.423Z,61.11
2022-07-30T03:52:41.443Z,61.49
2022-07-30T03:55:11.065Z,62.16
2022-07-30T03:57:37.918Z,62.34
2022-07-30T04:00:08.341Z,62.50
2022-07-30T04:02:42.666Z,61.04
2022-07-30T04:05:09.816Z,61.41
2022-07-30T04:07:41.372Z,61.69
2022-07-30T04:10:12.442Z,63.48
2022-07-30T04:12:39.079Z,63.96
2022-07-30T04:16:04.842Z,63.94
2022-07-30T04:17:58.710Z,63.15
2022-07-30T04:20:31.540Z,63.24
2022-07-30T04:22:59.167Z,63.39
2022-07-30T04:25:26.537Z,63.22
2022-07-30T04:28:03.097Z,63.33
2022-07-30T04:30:31.615Z,63.31
2022-07-30T04:32:58.267Z,62.91
2022-07-30T04:35:50.065Z,64.11
2022-07-30T04:38:19.582Z,65.83
2022-07-30T04:40:46.614Z,67.35
2022-07-30T04:43:13.316Z,67.40
2022-07-30T04:45:40.948Z,65.83
2022-07-30T04:48:08.207Z,65.23
2022-07-30T04:50:38.607Z,65.38
2022-07-30T04:53:05.779Z,67.44
2022-07-30T04:55:34.048Z,69.09
2022-07-30T04:58:02.150Z,68.21
2022-07-30T05:00:32.351Z,69.27
2022-07-30T05:03:00.808Z,71.41
2022-07-30T05:05:31.383Z,69.25
2022-07-30T05:07:58.757Z,69.43
2022-07-30T05:10:25.872Z,71.32
2022-07-30T05:12:52.556Z,71.74
2022-07-30T05:15:19.975Z,71.56
2022-07-30T05:17:46.887Z,73.00
2022-07-30T05:20:14.347Z,73.40
2022-07-30T05:22:42.857Z,73.01
2022-07-30T05:25:17.983Z,72.41
2022-07-30T05:27:44.672Z,71.87
2022-07-30T05:30:11.905Z,72.99
2022-07-30T05:32:39.802Z,73.76
2022-07-30T05:35:06.782Z,75.15
2022-07-30T05:37:33.678Z,74.81
2022-07-30T05:40:03.219Z,75.53
2022-07-30T05:42:30.295Z,75.52
2022-07-30T05:44:57.110Z,76.66
2022-07-30T05:47:23.866Z,76.84
2022-07-30T05:49:50.526Z,76.47
2022-07-30T05:52:17.192Z,76.53
2022-07-30T05:54:44.358Z,75.36
2022-07-30T05:57:11.618Z,75.74
2022-07-30T05:59:38.622Z,75.17
2022-07-30T06:02:06.803Z,74.45
2022-07-30T06:04:35.587Z,74.57
2022-07-30T06:07:02.745Z,73.78
2022-07-30T06:09:36.809Z,74.69
2022-07-30T06:12:04.495Z,74.48
2022-07-30T06:14:32.350Z,73.96
2022-07-30T06:16:59.520Z,73.10
2022-07-30T06:19:26.484Z,71.74
2022-07-30T06:22:05.763Z,70.31
2022-07-30T06:24:33.987Z,70.73
2022-07-30T06:27:01.012Z,69.88
2022-07-30T06:29:27.970Z,71.13
2022-07-30T06:31:54.630Z,69.29
2022-07-30T06:34:21.289Z,69.13
2022-07-30T06:36:48.419Z,69.14
2022-07-30T06:39:15.235Z,68.17
2022-07-30T06:42:01.950Z,68.36
2022-07-30T06:44:28.929Z,68.02
2022-07-30T06:46:55.655Z,66.96
2022-07-30T06:49:22.895Z,66.86
2022-07-30T06:51:49.690Z,66.25
2022-07-30T06:54:16.299Z,66.50
2022-07-30T06:56:43.034Z,66.23
2022-07-30T06:59:10.516Z,66.28
2022-07-30T07:01:37.272Z,65.72
2022-07-30T07:04:04.419Z,65.57
2022-07-30T07:06:31.148Z,66.24
2022-07-30T07:08:57.791Z,65.50
2022-07-30T07:11:24.628Z,65.36
2022-07-30T07:13:51.281Z,65.68
2022-07-30T07:16:21.842Z,64.81
2022-07-30T07:18:48.780Z,64.05
2022-07-30T07:21:15.764Z,64.02
2022-07-30T07:23:42.566Z,64.33
2022-07-30T07:26:09.744Z,63.36
2022-07-30T07:28:36.443Z,62.62
2022-07-30T07:31:03.473Z,62.84
2022-07-30T07:33:30.243Z,61.47
2022-07-30T07:35:56.923Z,61.74
2022-07-30T07:38:23.594Z,60.30
2022-07-30T07:40:50.296Z,61.31
2022-07-30T07:43:16.933Z,61.69
2022-07-30T07:45:43.967Z,61.16
2022-07-30T07:48:10.656Z,62.12
2022-07-30T07:50:37.634Z,60.70
2022-07-30T07:53:04.742Z,60.96
2022-07-30T07:55:32.834Z,61.13
2022-07-30T07:57:59.690Z,61.27
2022-07-30T08:00:26.639Z,61.30
2022-07-30T08:02:53.338Z,61.88
2022-07-30T08:05:20.168Z,61.44
2022-07-30T08:07:46.945Z,62.66
2022-07-30T08:10:16.030Z,62.61
2022-07-30T08:12:43.303Z,63.03
2022-07-30T08:15:10.311Z,61.97
2022-07-30T08:17:41.469Z,62.04
2022-07-30T08:20:09.146Z,62.37
2022-07-30T08:22:35.799Z,61.63
2022-07-30T08:25:03.807Z,62.10
2022-07-30T08:27:31.171Z,62.44
2022-07-30T08:29:57.996Z,62.41
2022-07-30T08:32:25.265Z,63.11
2022-07-30T08:34:51.882Z,61.92
2022-07-30T08:37:19.419Z,61.25
2022-07-30T08:39:46.043Z,61.40
2022-07-30T08:42:14.594Z,61.04
2022-07-30T08:44:44.371Z,61.43
2022-07-30T08:47:16.203Z,61.13
2022-07-30T08:49:43.294Z,61.25
2022-07-30T08:52:11.483Z,62.18
2022-07-30T08:54:40.779Z,61.88
2022-07-30T08:57:07.966Z,61.51
2022-07-30T08:59:52.935Z,60.99
2022-07-30T09:02:27.123Z,61.31
2022-07-30T09:04:54.518Z,59.18
2022-07-30T09:07:21.541Z,59.51
2022-07-30T09:09:48.155Z,60.02
2022-07-30T09:12:37.818Z,58.01
2022-07-30T09:15:20.313Z,59.05
2022-07-30T09:17:58.099Z,58.19
2022-07-30T09:20:29.923Z,56.80
2022-07-30T09:22:59.259Z,57.20
2022-07-30T09:25:36.089Z,56.05
2022-07-30T09:28:03.299Z,56.53
2022-07-30T09:30:47.076Z,56.57
2022-07-30T09:33:14.139Z,57.33
2022-07-30T09:35:42.807Z,56.86
2022-07-30T09:38:10.147Z,56.12
2022-07-30T09:40:37.767Z,56.38
2022-07-30T09:43:11.767Z,57.61
2022-07-30T09:45:56.708Z,57.09
2022-07-30T09:48:28.371Z,56.65
2022-07-30T09:54:01.012Z,54.81
2022-07-30T09:56:30.151Z,55.59
2022-07-30T09:58:57.159Z,55.40
2022-07-30T10:01:23.886Z,55.22
2022-07-30T10:04:10.561Z,53.94
2022-07-30T10:06:42.033Z,54.96
2022-07-30T10:09:14.284Z,53.72
2022-07-30T10:11:44.752Z,53.25
2022-07-30T10:14:12.732Z,52.75
2022-07-30T10:16:40.693Z,53.59
2022-07-30T10:19:07.540Z,53.37
2022-07-30T10:21:45.467Z,53.21
2022-07-30T10:24:16.265Z,53.90
2022-07-30T10:26:44.347Z,54.13
2022-07-30T10:29:15.847Z,54.12
2022-07-30T10:31:47.505Z,53.73
2022-07-30T10:34:23.970Z,52.32
2022-07-30T10:37:00.378Z,54.12
2022-07-30T10:39:35.507Z,50.66
2022-07-30T10:42:28.475Z,49.79
2022-07-30T10:45:17.493Z,50.72
2022-07-30T10:47:48.785Z,51.39
2022-07-30T10:50:22.355Z,51.92
2022-07-30T10:52:57.989Z,49.53
2022-07-30T10:55:37.557Z,50.51
2022-07-30T10:58:12.347Z,50.44
2022-07-30T11:00:53.711Z,49.99
2022-07-30T11:03:40.685Z,50.17
2022-07-30T11:06:24.313Z,52.15
2022-07-30T11:08:51.794Z,53.12
2022-07-30T11:12:01.624Z,52.81
2022-07-30T11:14:08.264Z,53.10
2022-07-30T11:16:34.931Z,53.46
2022-07-30T11:19:50.347Z,53.35
2022-07-30T11:22:22.928Z,52.60
2022-07-30T11:24:49.952Z,52.85
2022-07-30T11:27:36.423Z,53.08
2022-07-30T11:30:05.591Z,54.10
2022-07-30T11:32:34.174Z,53.87
2022-07-30T11:35:24.306Z,53.08
2022-07-30T11:38:13.020Z,52.69
2022-07-30T11:40:42.370Z,57.16
2022-07-30T11:43:37.039Z,57.15
2022-07-30T11:46:28.852Z,58.62
2022-07-30T11:49:10.400Z,59.21
2022-07-30T11:51:44.388Z,58.93
2022-07-30T11:54:12.204Z,58.17
2022-07-30T11:56:53.763Z,59.64
2022-07-30T11:59:20.736Z,61.27
2022-07-30T12:02:01.587Z,61.24
2022-07-30T12:04:28.804Z,61.80
2022-07-30T12:06:55.485Z,60.60
2022-07-30T12:09:27.291Z,63.51
2022-07-30T12:11:54.657Z,63.86
2022-07-30T12:14:21.326Z,66.01
2022-07-30T12:16:53.111Z,67.47
2022-07-30T12:19:19.871Z,67.74
2022-07-30T12:21:50.934Z,68.45
2022-07-30T12:24:24.165Z,70.35
2022-07-30T12:26:50.824Z,71.62
2022-07-30T12:29:18.329Z,68.56
2022-07-30T12:31:46.191Z,70.18
2022-07-30T12:34:24.021Z,65.27
2022-07-30T12:36:51.039Z,68.42
2022-07-30T12:39:22.913Z,64.72
2022-07-30T12:41:51.588Z,65.07
2022-07-30T12:44:41.661Z,65.80
2022-07-30T12:47:28.781Z,65.11
2022-07-30T12:49:57.633Z,64.00
2022-07-30T12:52:30.805Z,64.90
2022-07-30T12:54:57.714Z,64.75
2022-07-30T12:57:24.503Z,63.24
2022-07-30T13:00:08.285Z,64.38
2022-07-30T13:02:36.314Z,65.26
2022-07-30T13:05:10.620Z,65.76
2022-07-30T13:07:59.714Z,65.28
2022-07-30T13:10:30.710Z,63.50
2022-07-30T13:12:58.565Z,63.42
2022-07-30T13:15:25.295Z,64.19
2022-07-30T13:17:52.060Z,65.85
2022-07-30T13:20:19.194Z,66.21
2022-07-30T13:22:46.100Z,66.07
2022-07-30T13:25:13.387Z,65.25
2022-07-30T13:27:40.266Z,63.10
2022-07-30T13:30:07.866Z,58.72
2022-07-30T13:32:35.691Z,60.78
2022-07-30T13:35:03.148Z,60.60
2022-07-30T13:37:37.570Z,61.66
2022-07-30T13:40:06.297Z,62.68
2022-07-30T13:42:33.381Z,62.71
2022-07-30T13:45:00.075Z,63.35
2022-07-30T13:47:26.715Z,66.28
2022-07-30T13:49:53.413Z,65.06
2022-07-30T13:52:20.203Z,64.77
2022-07-30T13:54:46.929Z,63.45
2022-07-30T13:57:13.579Z,63.76
2022-07-30T13:59:40.265Z,63.11
2022-07-30T14:02:07.055Z,62.14
2022-07-30T14:04:34.102Z,63.77
2022-07-30T14:07:01.205Z,63.84
2022-07-30T14:09:28.366Z,61.03
2022-07-30T14:11:55.191Z,57.42
2022-07-30T14:14:22.622Z,58.45
2022-07-30T14:16:58.754Z,59.57
2022-07-30T14:19:25.635Z,60.97
2022-07-30T14:21:53.851Z,62.16
2022-07-30T14:24:22.337Z,55.72
2022-07-30T14:26:55.868Z,57.39
2022-07-30T14:29:24.295Z,58.25
2022-07-30T14:31:50.950Z,55.86
2022-07-30T14:34:19.210Z,57.74
2022-07-30T14:36:45.859Z,57.22
2022-07-30T14:39:12.500Z,55.82
2022-07-30T14:41:39.215Z,55.67
2022-07-30T14:44:05.954Z,51.69
2022-07-30T14:46:32.595Z,52.87
2022-07-30T14:48:59.253Z,50.82
2022-07-30T14:51:27.669Z,50.86
2022-07-30T14:53:56.977Z,49.18
2022-07-30T14:56:25.170Z,49.94
2022-07-30T14:58:52.370Z,50.34
2022-07-30T15:01:19.301Z,49.71
2022-07-30T15:03:46.606Z,47.50
2022-07-30T15:06:15.415Z,48.02
2022-07-30T15:08:43.130Z,48.04
2022-07-30T15:11:09.879Z,48.79
2022-07-30T15:13:38.524Z,48.54
2022-07-30T15:16:07.274Z,48.65
2022-07-30T15:18:33.986Z,49.59
2022-07-30T15:21:00.650Z,48.23
2022-07-30T15:23:27.330Z,45.66
2022-07-30T15:25:53.984Z,45.07
2022-07-30T15:28:20.723Z,46.77
2022-07-30T15:30:47.503Z,46.28
2022-07-30T15:33:14.203Z,46.06
2022-07-30T15:35:41.495Z,46.37
2022-07-30T15:38:08.162Z,45.56
2022-07-30T15:40:34.898Z,43.95
2022-07-30T15:43:01.555Z,43.66
2022-07-30T15:45:52.379Z,43.25
2022-07-30T15:48:26.882Z,43.19
2022-07-30T15:50:54.638Z,42.87
2022-07-30T15:53:21.249Z,42.58
2022-07-30T15:55:47.958Z,42.68
2022-07-30T15:58:14.609Z,44.99
2022-07-30T16:00:41.339Z,44.43
2022-07-30T16:03:08.079Z,45.42
2022-07-30T16:05:51.126Z,45.33
2022-07-30T16:08:18.546Z,44.03
2022-07-30T16:10:45.214Z,43.89
2022-07-30T16:13:11.883Z,45.75
2022-07-30T16:15:38.606Z,48.14
2022-07-30T16:18:05.773Z,49.34
2022-07-30T16:20:33.038Z,50.71
2022-07-30T16:22:59.700Z,49.95
2022-07-30T16:25:26.525Z,50.00
2022-07-30T16:27:53.326Z,50.38
2022-07-30T16:30:20.214Z,50.86
2022-07-30T16:32:46.954Z,50.92
2022-07-30T16:35:13.697Z,51.42
2022-07-30T16:37:40.414Z,49.89
2022-07-30T16:40:07.515Z,51.17
2022-07-30T16:42:34.129Z,50.76
2022-07-30T16:45:00.803Z,52.51
2022-07-30T16:47:27.463Z,52.13
2022-07-30T16:50:01.022Z,52.56
2022-07-30T16:52:27.760Z,53.25
2022-07-30T16:54:54.493Z,53.86
2022-07-30T16:57:21.126Z,53.77
2022-07-30T16:59:47.883Z,54.04
2022-07-30T17:02:14.561Z,54.26
2022-07-30T17:04:41.673Z,53.81
2022-07-30T17:07:08.415Z,53.48
2022-07-30T17:09:36.795Z,53.09
2022-07-30T17:12:06.451Z,53.50
2022-07-30T17:14:40.576Z,53.78
2022-07-30T17:17:12.015Z,54.74
2022-07-30T17:19:40.671Z,55.29
2022-07-30T17:22:07.440Z,54.60
2022-07-30T17:24:34.216Z,53.84
2022-07-30T17:27:00.941Z,53.85
2022-07-30T17:29:27.590Z,54.93
2022-07-30T17:31:55.569Z,53.87
2022-07-30T17:34:22.411Z,53.39
2022-07-30T17:36:52.331Z,54.19
2022-07-30T17:40:26.279Z,54.44
2022-07-30T17:42:10.279Z,54.42
2022-07-30T17:44:37.314Z,55.71
2022-07-30T17:47:03.951Z,55.38
2022-07-30T17:49:31.012Z,55.72
2022-07-30T17:51:57.968Z,55.38
2022-07-30T17:54:24.920Z,55.72
2022-07-30T17:56:51.673Z,55.73
2022-07-30T17:59:18.352Z,56.03
2022-07-30T18:01:45.081Z,55.45
2022-07-30T18:04:11.716Z,54.67
2022-07-30T18:06:38.390Z,54.73
2022-07-30T18:09:05.465Z,55.46
2022-07-30T18:11:32.493Z,55.90
2022-07-30T18:13:59.212Z,55.34
2022-07-30T18:16:26.321Z,55.83
2022-07-30T18:18:52.949Z,56.07
2022-07-30T18:21:19.641Z,55.69
2022-07-30T18:23:46.547Z,55.22
2022-07-30T18:26:14.971Z,55.78
2022-07-30T18:28:41.731Z,55.81
2022-07-30T18:31:08.408Z,55.19
2022-07-30T18:33:35.083Z,56.24
2022-07-30T18:36:01.856Z,55.77
2022-07-30T18:38:28.548Z,55.92
2022-07-30T18:40:57.922Z,56.13
2022-07-30T18:43:28.358Z,55.73
2022-07-30T18:45:55.778Z,55.75
2022-07-30T18:48:23.091Z,56.87
2022-07-30T18:50:50.486Z,56.78
2022-07-30T18:53:17.346Z,56.04
2022-07-30T18:55:44.512Z,55.57
2022-07-30T18:58:12.040Z,56.09
2022-07-30T19:00:39.884Z,56.19
2022-07-30T19:03:16.274Z,56.29
2022-07-30T19:05:45.537Z,56.01
2022-07-30T19:08:12.186Z,55.47
2022-07-30T19:10:39.996Z,55.62
2022-07-30T19:13:06.699Z,55.52
2022-07-30T19:15:33.334Z,55.87
2022-07-30T19:18:01.201Z,56.44
2022-07-30T19:20:28.135Z,55.96
2022-07-30T19:23:02.703Z,55.31
2022-07-30T19:25:30.887Z,56.15
2022-07-30T19:27:57.590Z,56.05
2022-07-30T19:30:24.366Z,55.85
2022-07-30T19:32:51.134Z,56.46
2022-07-30T19:35:17.880Z,57.44
2022-07-30T19:37:44.728Z,57.90
2022-07-30T19:40:12.889Z,56.91
2022-07-30T19:42:41.329Z,56.67
2022-07-30T19:45:11.407Z,56.74
2022-07-30T19:47:39.862Z,56.60
2022-07-30T19:50:10.462Z,56.41
2022-07-30T19:52:38.054Z,56.48
2022-07-30T19:55:17.052Z,56.48
2022-07-30T19:57:54.545Z,57.21
2022-07-30T20:00:24.819Z,57.31
2022-07-30T20:02:52.339Z,57.33
2022-07-30T20:05:19.636Z,57.74
2022-07-30T20:10:34.766Z,57.55
2022-07-30T20:13:01.413Z,59.08
2022-07-30T20:15:33.180Z,59.70
2022-07-30T20:18:01.805Z,58.29
2022-07-30T20:20:29.965Z,59.30
2022-07-30T20:22:56.595Z,59.51
2022-07-30T20:25:25.151Z,59.11
2022-07-30T20:27:51.791Z,58.61
2022-07-30T20:30:18.415Z,59.20
2022-07-30T20:32:52.226Z,59.15
2022-07-30T20:35:21.428Z,59.33
2022-07-30T20:37:54.663Z,59.77
2022-07-30T20:40:23.453Z,58.84
2022-07-30T20:42:50.194Z,59.53
2022-07-30T20:45:16.887Z,58.63
2022-07-30T20:47:52.438Z,58.70
2022-07-30T20:50:19.343Z,58.80
2022-07-30T20:52:57.705Z,58.45
2022-07-30T20:55:24.362Z,58.54
2022-07-30T20:58:01.966Z,58.47
2022-07-30T21:00:38.200Z,58.71
2022-07-30T21:03:05.592Z,59.62
2022-07-30T21:05:32.365Z,58.69
2022-07-30T21:07:59.025Z,58.71
2022-07-30T21:10:25.781Z,58.87
2022-07-30T21:12:58.626Z,58.85
2022-07-30T21:15:45.678Z,59.13
2022-07-30T21:18:26.608Z,59.97
2022-07-30T21:20:53.463Z,59.24
2022-07-30T21:23:23.617Z,59.33
2022-07-30T21:28:41.000Z,59.92
2022-07-30T21:31:07.707Z,59.51
2022-07-30T21:33:36.417Z,59.31
2022-07-30T21:36:03.855Z,58.93
2022-07-30T21:38:31.915Z,60.19
2022-07-30T21:40:58.662Z,59.49
2022-07-30T21:43:29.655Z,59.12
2022-07-30T21:45:57.659Z,59.59
2022-07-30T21:48:24.777Z,59.57
2022-07-30T21:50:52.855Z,60.16
2022-07-30T21:53:29.832Z,60.08
2022-07-30T21:56:06.550Z,59.64
2022-07-30T21:58:33.290Z,59.56
2022-07-30T22:01:16.383Z,59.45
2022-07-30T22:04:04.536Z,60.26
2022-07-30T22:06:41.252Z,61.03
2022-07-30T22:09:19.190Z,60.26
2022-07-30T22:11:57.154Z,60.11
2022-07-30T22:14:28.158Z,59.99
2022-07-30T22:16:55.508Z,60.43
2022-07-30T22:19:22.183Z,60.33
2022-07-30T22:22:01.926Z,60.77
2022-07-30T22:24:31.994Z,60.46
2022-07-30T22:27:01.135Z,60.07
2022-07-30T22:29:33.791Z,60.09
2022-07-30T22:32:01.907Z,60.20
2022-07-30T22:34:28.732Z,59.59
2022-07-30T22:36:55.332Z,60.13
2022-07-30T22:39:24.402Z,60.61
2022-07-30T22:42:00.912Z,60.94
2022-07-30T22:44:28.201Z,60.54
2022-07-30T22:46:56.483Z,60.64
2022-07-30T22:49:45.264Z,60.75
2022-07-30T22:52:20.087Z,60.11
2022-07-30T22:54:52.134Z,59.95
2022-07-30T22:57:22.924Z,59.98
2022-07-30T22:59:58.185Z,60.36
2022-07-30T23:02:27.779Z,60.10
2022-07-30T23:04:54.919Z,60.75
2022-07-30T23:07:23.469Z,60.92
2022-07-30T23:09:55.732Z,60.84
2022-07-30T23:12:17.229Z,57.11
2022-07-30T23:12:23.469Z,60.36
2022-07-30T23:12:27.229Z,59.01
2022-07-30T23:14:52.338Z,59.97
2022-07-30T23:17:18.970Z,59.93
2022-07-30T23:19:45.643Z,60.59
2022-07-30T23:22:12.338Z,60.64
2022-07-30T23:24:39.149Z,60.03
2022-07-30T23:27:06.173Z,60.81
2022-07-30T23:29:32.970Z,60.37
2022-07-30T23:31:59.666Z,60.42
2022-07-30T23:34:26.635Z,60.06
2022-07-30T23:36:53.289Z,60.80
2022-07-30T23:39:19.913Z,60.88
2022-07-30T23:41:46.843Z,60.29
2022-07-30T23:44:13.533Z,60.31
2022-07-30T23:46:40.867Z,60.72
2022-07-30T23:49:07.734Z,60.49
2022-07-30T23:51:34.451Z,60.47
2022-07-30T23:54:01.663Z,60.36
2022-07-30T23:56:28.301Z,59.87
2022-07-30T23:58:54.962Z,60.31
